Terminal Aerodrome Forecast
Issued by NWS

Home | Current Version | Previous Version | Text Only | Print | Product List | Glossary On
Versions: 1 2 3 4 5 6 7 8 9 10 11 12 13 14 15
000
FTUS45 KABQ 202100 AAA
TAFTCC
TAF AMD
KTCC 202125Z 2021/2118 33010G20KT P6SM VCTS BKN070CB BKN100
     FM210000 33010KT P6SM BKN080
     FM211400 03015KT P6SM SKC
     FM211700 03015G25KT P6SM SKC=

USA.gov is the U.S. government's official web portal to all federal, state and local government web resources and services.